Bigler, PA (16825)

10:14 AM EST on February 11, 2016 (GMT -0500)
Woodland | | Change Station
CLOSE
Current Station
Personal Weather Station
Location: Woodland, PA
Elevation: 1765 ft
Nearby Weather Stations
Active Advisory: Winter Weather Advisory Active Notice: Local Storm Report

Elev 1765 ft 41.01 °N, 78.35 °W | Updated 7 minutes ago

Clear
Clear
12.7 °F
Feels Like 0 °F
N
10.4
Wind Variable Wind from West

Today
High -- | Low -- °F
--% Chance of Precip.
Yesterday
High -- | Low -- °F
Precip. -- in
Pressure 30.04 in
Visibility 10.0 miles
Clouds Few 3600 ft
Windchill 0 °F
Dew Point 3 °F
Humidity 64%
Rainfall 0.00 in
Snow Depth Not available.
7:13 AM 5:42 PM
Waxing Crescent, 12% visible
METAR KFIG 111454Z AUTO 26013G22KT 10SM FEW036 M10/M18 A2996 RMK AO2 SLP172 T11001178 51019
Pressure 30.04 in
Visibility 10.0 miles
Clouds Few 3600 ft
Windchill 0 °F
Dew Point 3 °F
Humidity 64%
Rainfall 0.00 in
Snow Depth Not available.
7:13 AM 5:42 PM
Waxing Crescent, 12% visible
METAR KFIG 111454Z AUTO 26013G22KT 10SM FEW036 M10/M18 A2996 RMK AO2 SLP172 T11001178 51019

10-Day Weather Forecast

Almanac

Astronomy

Feb. 11, 2016 Rise Set
Actual Time
Civil Twilight
Nautical Twilight
Astronomical Twilight
Moon
Length of Visible Light
Length of Day
Tomorrow will be .
, % of the Moon is Illuminated

Today's Extremes

State Highs State Lows

Community

WunderPhotos

Upload Photos

1,892,060 photos uploaded!

WunderBlog® & News

Nearby

Air Quality

  Air Quality AQ Index Pollutant
Not available.

Snow Depth

Station Depth Elevation

Earthquake Activity

City Distance Mag. Time & Date
Minimum magnitude displayed is 2.5.

Coastal Water Temperatures

Place Temperature

Stations

Nearby Weather Stations

Station Location Temp. Windchill Dew Point Humidity Wind Precip. Elev Updated Type
                   

Watches & Warnings

Winter Weather Advisory
Issued: 6:39 AM EST Feb. 11, 2016 – National Weather Service

... Winter Weather Advisory remains in effect until 10 PM EST this
evening...

* snow accumulations... an additional 2 to 4 inches.

* Timing... occasional snow showers of varying intensity will
last into early evening.

* Winds... west 10 to 20 mph with gusts up to 35 mph.

* Impacts... untreated roads will be snow covered. The wind will
lead to blowing and drifting snow. Visibility could be greatly
reduced during brief heavier squalls... and in areas of blowing
snow. Wind chills will be in the single digits below zero all
day.

Precautionary/preparedness actions...

Hazardous winter weather conditions are expected or occurring.
Use caution if traveling. For the latest weather information... go
to weather.Gov/statecollege or monitor NOAA Weather Radio.

Report snow or ice accumulation to the National Weather Service
State College by sending an email to ctp.Stormreports@noaa.Gov...
posting to the NWS State College facebook Page... or tweet
@nwsstatecollege with the hashtag c... T... p... W... x.